createdAt,value
2023-01-09T00:01:32.858Z,101860.38
2023-01-09T00:04:07.837Z,101866.66
2023-01-09T00:06:46.489Z,101871.19
2023-01-09T00:09:26.652Z,101868.13
2023-01-09T00:12:02.834Z,101866.81
2023-01-09T00:18:00.388Z,101867.30
2023-01-09T00:20:34.043Z,101862.95
2023-01-09T00:23:16.686Z,101857.59
2023-01-09T00:26:07.737Z,101853.83
2023-01-09T00:28:50.290Z,101853.49
2023-01-09T00:31:31.028Z,101849.08
2023-01-09T00:34:13.979Z,101854.72
2023-01-09T00:37:03.774Z,101845.59
2023-01-09T00:39:38.373Z,101848.75
2023-01-09T00:42:22.644Z,101841.92
2023-01-09T00:45:06.889Z,101847.62
2023-01-09T00:47:46.577Z,101841.92
2023-01-09T00:50:46.692Z,101841.21
2023-01-09T00:53:27.625Z,101833.68
2023-01-09T00:56:13.731Z,101830.90
2023-01-09T00:58:56.960Z,101835.34
2023-01-09T01:01:31.993Z,101830.14
2023-01-09T01:04:27.342Z,101826.74
2023-01-09T01:07:23.461Z,101834.40
2023-01-09T01:10:04.395Z,101829.75
2023-01-09T01:12:46.450Z,101834.55
2023-01-09T01:15:26.764Z,101831.16
2023-01-09T01:18:06.377Z,101831.22
2023-01-09T01:20:49.204Z,101825.71
2023-01-09T01:23:35.372Z,101829.27
2023-01-09T01:26:23.679Z,101830.82
2023-01-09T01:29:05.576Z,101825.31
2023-01-09T01:31:56.685Z,101821.89
2023-01-09T01:34:32.702Z,101824.12
2023-01-09T01:37:13.873Z,101823.14
2023-01-09T01:40:01.477Z,101825.31
2023-01-09T01:42:37.330Z,101824.97
2023-01-09T01:45:16.207Z,101824.97
2023-01-09T01:47:58.698Z,101824.33
2023-01-09T01:50:51.199Z,101818.40
2023-01-09T01:53:38.688Z,101821.21
2023-01-09T01:56:25.885Z,101824.76
2023-01-09T01:59:30.999Z,101825.46
2023-01-09T02:02:06.589Z,101825.19
2023-01-09T02:04:47.346Z,101827.14
2023-01-09T02:07:22.361Z,101820.51
2023-01-09T02:10:03.524Z,101823.72
2023-01-09T02:12:41.958Z,101830.80
2023-01-09T02:15:30.047Z,101829.14
2023-01-09T02:18:21.113Z,101816.93
2023-01-09T02:24:44.463Z,101819.28
2023-01-09T02:28:10.324Z,101814.20
2023-01-09T02:31:13.051Z,101821.52
2023-01-09T02:34:13.264Z,101824.52
2023-01-09T02:36:58.869Z,101822.98
2023-01-09T02:39:46.058Z,101822.44
2023-01-09T02:42:35.851Z,101820.84
2023-01-09T02:45:22.066Z,101819.23
2023-01-09T02:47:57.253Z,101820.84
2023-01-09T02:50:58.704Z,101820.84
2023-01-09T02:53:51.164Z,101821.73
2023-01-09T02:56:45.003Z,101817.48
2023-01-09T02:59:35.701Z,101811.05
2023-01-09T03:02:27.398Z,101809.39
2023-01-09T03:05:30.564Z,101808.39
2023-01-09T03:08:21.004Z,101807.13
2023-01-09T03:11:09.629Z,101811.38
2023-01-09T03:13:53.046Z,101808.09
2023-01-09T03:16:40.598Z,101814.10
2023-01-09T03:19:19.792Z,101806.57
2023-01-09T03:21:55.910Z,101813.18
2023-01-09T03:24:33.903Z,101808.47
2023-01-09T03:27:17.087Z,101802.90
2023-01-09T03:29:57.114Z,101806.42
2023-01-09T03:32:32.718Z,101798.77
2023-01-09T03:35:11.373Z,101807.89
2023-01-09T03:37:52.010Z,101800.66
2023-01-09T03:40:46.813Z,101805.47
2023-01-09T03:43:25.624Z,101797.46
2023-01-09T03:46:03.817Z,101797.89
2023-01-09T03:48:38.121Z,101797.70
2023-01-09T03:51:17.287Z,101798.17
2023-01-09T03:53:59.079Z,101793.46
2023-01-09T03:56:35.180Z,101800.69
2023-01-09T03:59:12.598Z,101794.66
2023-01-09T04:01:48.734Z,101800.63
2023-01-09T04:04:25.419Z,101803.50
2023-01-09T04:07:14.615Z,101812.77
2023-01-09T04:09:56.425Z,101805.03
2023-01-09T04:12:36.877Z,101814.78
2023-01-09T04:15:15.268Z,101812.58
2023-01-09T04:17:50.342Z,101816.68
2023-01-09T04:20:30.453Z,101811.75
2023-01-09T04:23:05.938Z,101810.84
2023-01-09T04:25:53.853Z,101803.22
2023-01-09T04:28:34.090Z,101798.63
2023-01-09T04:31:09.009Z,101806.00
2023-01-09T04:33:43.747Z,101806.55
2023-01-09T04:36:27.860Z,101806.47
2023-01-09T04:39:01.826Z,101809.55
2023-01-09T04:41:51.425Z,101817.76
2023-01-09T04:44:27.197Z,101811.20
2023-01-09T04:50:33.411Z,101799.52
2023-01-09T04:52:54.550Z,101793.74
2023-01-09T04:56:02.249Z,101785.39
2023-01-09T04:58:47.210Z,101792.66
2023-01-09T05:01:31.053Z,101794.31
2023-01-09T05:07:05.687Z,101792.45
2023-01-09T05:09:48.369Z,101786.52
2023-01-09T05:12:38.384Z,101788.47
2023-01-09T05:15:27.786Z,101795.02
2023-01-09T05:18:06.712Z,101800.25
2023-01-09T05:21:25.960Z,101799.00
2023-01-09T05:24:27.717Z,101798.36
2023-01-09T05:27:08.383Z,101801.42
2023-01-09T05:29:53.986Z,101800.09
2023-01-09T05:32:44.681Z,101807.20
2023-01-09T05:35:35.513Z,101809.98
2023-01-09T05:38:58.815Z,101815.92
2023-01-09T05:41:28.524Z,101823.08
2023-01-09T05:44:09.969Z,101829.20
2023-01-09T05:46:49.878Z,101840.62
2023-01-09T05:49:28.157Z,101845.51
2023-01-09T05:52:12.288Z,101838.53
2023-01-09T05:55:05.976Z,101831.52
2023-01-09T05:57:48.952Z,101828.67
2023-01-09T06:01:11.249Z,101827.70
2023-01-09T06:04:08.943Z,101826.37
2023-01-09T06:07:05.549Z,101836.05
2023-01-09T06:10:05.484Z,101831.03
2023-01-09T06:12:53.653Z,101835.92
2023-01-09T06:15:56.519Z,101839.59
2023-01-09T06:18:35.027Z,101842.28
2023-01-09T06:21:26.882Z,101835.60
2023-01-09T06:24:23.540Z,101837.23
2023-01-09T06:27:05.192Z,101831.81
2023-01-09T06:29:58.476Z,101830.87
2023-01-09T06:32:37.265Z,101834.53
2023-01-09T06:35:15.100Z,101835.77
2023-01-09T06:37:50.398Z,101832.22
2023-01-09T06:40:25.608Z,101832.05
2023-01-09T06:43:07.518Z,101833.74
2023-01-09T06:45:44.996Z,101829.33
2023-01-09T06:48:34.221Z,101827.11
2023-01-09T06:51:06.930Z,101826.53
2023-01-09T06:57:15.386Z,101826.00
2023-01-09T07:00:04.355Z,101828.98
2023-01-09T07:02:45.975Z,101834.61
2023-01-09T07:05:21.790Z,101836.58
2023-01-09T07:08:06.080Z,101835.76
2023-01-09T07:10:46.522Z,101841.23
2023-01-09T07:13:21.707Z,101840.90
2023-01-09T07:16:01.338Z,101840.99
2023-01-09T07:18:40.431Z,101862.80
2023-01-09T07:21:18.780Z,101854.08
2023-01-09T07:23:55.621Z,101852.34
2023-01-09T07:26:34.788Z,101855.64
2023-01-09T07:29:41.762Z,101853.50
2023-01-09T07:32:39.991Z,101854.97
2023-01-09T07:35:15.656Z,101861.43
2023-01-09T07:37:58.348Z,101860.02
2023-01-09T07:40:36.483Z,101866.53
2023-01-09T07:43:12.315Z,101857.59
2023-01-09T07:45:47.911Z,101859.99
2023-01-09T07:48:33.107Z,101856.73
2023-01-09T07:51:35.867Z,101846.39
2023-01-09T07:54:16.561Z,101847.63
2023-01-09T07:57:00.602Z,101839.91
2023-01-09T07:59:43.822Z,101840.57
2023-01-09T08:02:22.701Z,101840.42
2023-01-09T08:05:01.045Z,101838.95
2023-01-09T08:07:38.521Z,101834.15
2023-01-09T08:10:36.584Z,101825.39
2023-01-09T08:13:34.641Z,101823.67
2023-01-09T08:16:16.490Z,101817.88
2023-01-09T08:22:34.197Z,101808.60
2023-01-09T08:25:12.216Z,101814.83
2023-01-09T08:30:47.619Z,101807.41
2023-01-09T08:33:47.055Z,101806.67
2023-01-09T08:36:40.082Z,101798.95
2023-01-09T08:39:35.520Z,101798.55
2023-01-09T08:45:44.697Z,101784.05
2023-01-09T08:51:38.116Z,101771.95
2023-01-09T08:54:12.142Z,101772.91
2023-01-09T08:56:46.581Z,101770.31
2023-01-09T09:02:49.344Z,101766.07
2023-01-09T09:05:50.632Z,101780.77
2023-01-09T09:08:29.049Z,101769.76
2023-01-09T09:11:14.793Z,101767.58
2023-01-09T09:13:59.512Z,101768.17
2023-01-09T09:16:54.808Z,101768.17
2023-01-09T09:19:29.251Z,101769.59
2023-01-09T09:22:11.992Z,101769.59
2023-01-09T09:25:19.781Z,101763.62
2023-01-09T09:28:09.175Z,101754.64
2023-01-09T09:30:56.566Z,101754.64
2023-01-09T09:33:56.638Z,101759.59
2023-01-09T09:40:18.675Z,101761.12
2023-01-09T09:43:32.278Z,101767.11
2023-01-09T09:46:30.362Z,101766.89
2023-01-09T09:49:36.574Z,101769.54
2023-01-09T09:55:43.050Z,101764.87
2023-01-09T09:58:45.242Z,101761.55
2023-01-09T10:01:32.299Z,101744.66
2023-01-09T10:04:17.789Z,101738.67
2023-01-09T10:07:01.454Z,101740.85
2023-01-09T10:12:57.408Z,101726.97
2023-01-09T10:15:54.920Z,101725.25
2023-01-09T10:19:05.595Z,101720.98
2023-01-09T10:22:25.177Z,101706.38
2023-01-09T10:25:24.144Z,101701.64
2023-01-09T10:28:38.785Z,101703.14
2023-01-09T10:31:22.569Z,101703.38
2023-01-09T10:34:34.454Z,101697.70
2023-01-09T10:37:19.932Z,101700.59
2023-01-09T10:40:33.444Z,101690.88
2023-01-09T10:43:29.303Z,101686.80
2023-01-09T10:46:06.244Z,101688.75
2023-01-09T10:48:42.020Z,101681.20
2023-01-09T10:51:25.637Z,101676.57
2023-01-09T10:53:58.684Z,101674.92
2023-01-09T10:56:37.927Z,101673.41
2023-01-09T10:59:11.425Z,101676.87
2023-01-09T11:01:44.720Z,101680.22
2023-01-09T11:04:34.291Z,101680.58
2023-01-09T11:07:18.044Z,101673.55
2023-01-09T11:10:08.645Z,101668.02
2023-01-09T11:12:42.312Z,101670.78
2023-01-09T11:15:28.923Z,101665.56
2023-01-09T11:18:21.370Z,101669.23
2023-01-09T11:20:54.807Z,101669.00
2023-01-09T11:23:35.092Z,101660.64
2023-01-09T11:26:11.004Z,101658.33
2023-01-09T11:28:43.917Z,101657.72
2023-01-09T11:31:18.483Z,101657.39
2023-01-09T11:33:52.053Z,101657.12
2023-01-09T11:36:26.440Z,101653.30
2023-01-09T11:39:02.873Z,101653.30
2023-01-09T11:41:37.479Z,101643.85
2023-01-09T11:44:12.716Z,101642.44
2023-01-09T11:46:47.022Z,101643.95
2023-01-09T11:49:31.960Z,101646.27
2023-01-09T11:52:21.122Z,101642.96
2023-01-09T11:55:04.855Z,101648.52
2023-01-09T11:57:37.689Z,101652.09
2023-01-09T12:00:31.148Z,101642.82
2023-01-09T12:03:20.327Z,101640.86
2023-01-09T12:06:06.532Z,101636.91
2023-01-09T12:08:56.712Z,101637.95
2023-01-09T12:11:46.250Z,101636.33
2023-01-09T12:14:47.872Z,101636.46
2023-01-09T12:17:26.071Z,101634.06
2023-01-09T12:20:18.751Z,101630.93
2023-01-09T12:23:32.769Z,101644.78
2023-01-09T12:26:19.171Z,101640.86
2023-01-09T12:29:03.009Z,101640.86
2023-01-09T12:31:46.742Z,101650.20
2023-01-09T12:35:00.628Z,101650.43
2023-01-09T12:38:06.385Z,101648.13
2023-01-09T12:40:50.608Z,101642.52
2023-01-09T12:43:35.512Z,101643.20
2023-01-09T12:46:19.339Z,101655.38
2023-01-09T12:49:17.590Z,101652.24
2023-01-09T12:52:10.934Z,101649.92
2023-01-09T12:54:58.340Z,101653.73
2023-01-09T12:57:44.934Z,101653.96
2023-01-09T13:00:23.666Z,101662.03
2023-01-09T13:03:12.983Z,101654.73
2023-01-09T13:05:53.851Z,101660.32
2023-01-09T13:08:40.290Z,101664.82
2023-01-09T13:11:24.081Z,101668.28
2023-01-09T13:14:17.980Z,101676.63
2023-01-09T13:16:54.678Z,101674.22
2023-01-09T13:19:39.798Z,101665.56
2023-01-09T13:22:14.899Z,101663.39
2023-01-09T13:25:17.265Z,101672.58
2023-01-09T13:27:58.193Z,101674.69
2023-01-09T13:30:54.586Z,101681.08
2023-01-09T13:33:35.337Z,101687.58
2023-01-09T13:36:09.972Z,101693.48
2023-01-09T13:38:43.785Z,101696.38
2023-01-09T13:41:36.680Z,101700.46
2023-01-09T13:44:28.050Z,101708.08
2023-01-09T13:47:03.742Z,101704.98
2023-01-09T13:49:52.646Z,101702.57
2023-01-09T13:52:43.731Z,101700.52
2023-01-09T13:55:25.941Z,101692.66
2023-01-09T13:58:15.432Z,101692.81
2023-01-09T14:00:51.905Z,101700.78
2023-01-09T14:03:40.416Z,101703.08
2023-01-09T14:06:17.786Z,101710.67
2023-01-09T14:08:55.969Z,101712.55
2023-01-09T14:11:29.698Z,101702.62
2023-01-09T14:14:05.939Z,101701.92
2023-01-09T14:16:39.923Z,101693.02
2023-01-09T14:19:41.207Z,101701.04
2023-01-09T14:22:38.094Z,101695.72
2023-01-09T14:25:12.969Z,101691.66
2023-01-09T14:28:11.745Z,101700.19
2023-01-09T14:31:02.344Z,101694.18
2023-01-09T14:33:40.171Z,101690.03
2023-01-09T14:36:23.261Z,101693.48
2023-01-09T14:39:04.674Z,101711.44
2023-01-09T14:42:01.700Z,101704.08
2023-01-09T14:45:01.106Z,101709.70
2023-01-09T14:47:41.623Z,101710.58
2023-01-09T14:50:38.270Z,101714.63
2023-01-09T14:53:25.875Z,101711.37
2023-01-09T14:56:06.378Z,101699.47
2023-01-09T14:58:40.603Z,101699.94
2023-01-09T15:01:21.580Z,101709.45
2023-01-09T15:04:02.056Z,101704.26
2023-01-09T15:06:39.096Z,101703.22
2023-01-09T15:09:42.345Z,101697.44
2023-01-09T15:12:22.936Z,101691.78
2023-01-09T15:15:00.049Z,101683.70
2023-01-09T15:17:36.832Z,101687.27
2023-01-09T15:20:21.679Z,101679.74
2023-01-09T15:22:55.951Z,101668.58
2023-01-09T15:25:38.467Z,101664.86
2023-01-09T15:28:22.910Z,101659.44
2023-01-09T15:31:04.438Z,101664.48
2023-01-09T15:33:40.804Z,101662.34
2023-01-09T15:36:24.866Z,101665.58
2023-01-09T15:38:59.584Z,101659.20
2023-01-09T15:41:52.213Z,101659.20
2023-01-09T15:44:30.565Z,101670.59
2023-01-09T15:47:07.279Z,101668.38
2023-01-09T15:49:40.995Z,101675.36
2023-01-09T15:52:18.646Z,101675.36
2023-01-09T15:54:52.566Z,101673.02
2023-01-09T15:57:33.488Z,101667.10
2023-01-09T16:00:35.687Z,101667.10
2023-01-09T16:03:24.027Z,101673.54
2023-01-09T16:06:05.875Z,101669.93
2023-01-09T16:08:46.804Z,101671.91
2023-01-09T16:11:37.939Z,101677.98
2023-01-09T16:14:24.377Z,101677.98
2023-01-09T16:17:07.121Z,101689.02
2023-01-09T16:19:50.775Z,101679.00
2023-01-09T16:22:28.648Z,101679.92
2023-01-09T16:25:34.797Z,101684.38
2023-01-09T16:28:22.606Z,101682.31
2023-01-09T16:31:10.091Z,101680.81
2023-01-09T16:33:47.021Z,101679.30
2023-01-09T16:36:22.156Z,101679.97
2023-01-09T16:38:57.224Z,101686.97
2023-01-09T16:41:50.311Z,101689.95
2023-01-09T16:44:24.217Z,101690.09
2023-01-09T16:46:58.810Z,101688.24
2023-01-09T16:49:33.477Z,101686.63
2023-01-09T16:52:12.401Z,101691.13
2023-01-09T16:54:48.238Z,101687.08
2023-01-09T16:57:23.889Z,101688.17
2023-01-09T17:00:00.830Z,101690.22
2023-01-09T17:02:35.125Z,101695.14
2023-01-09T17:05:09.389Z,101693.63
2023-01-09T17:07:44.217Z,101696.83
2023-01-09T17:10:22.454Z,101696.02
2023-01-09T17:12:57.442Z,101694.16
2023-01-09T17:15:32.580Z,101695.64
2023-01-09T17:18:07.171Z,101698.84
2023-01-09T17:20:43.608Z,101701.23
2023-01-09T17:23:17.731Z,101694.98
2023-01-09T17:26:15.314Z,101697.26
2023-01-09T17:28:52.380Z,101689.19
2023-01-09T17:31:26.452Z,101686.41
2023-01-09T17:34:01.216Z,101684.41
2023-01-09T17:36:35.720Z,101684.41
2023-01-09T17:39:10.979Z,101686.38
2023-01-09T17:41:44.863Z,101683.71
2023-01-09T17:44:19.177Z,101687.25
2023-01-09T17:46:53.085Z,101685.05
2023-01-09T17:49:27.953Z,101677.22
2023-01-09T17:52:01.827Z,101681.46
2023-01-09T17:54:35.883Z,101681.78
2023-01-09T17:57:12.353Z,101678.09
2023-01-09T17:59:46.804Z,101674.05
2023-01-09T18:02:21.258Z,101681.03
2023-01-09T18:04:55.656Z,101679.21
2023-01-09T18:07:29.798Z,101679.53
2023-01-09T18:10:02.639Z,101672.72
2023-01-09T18:12:48.980Z,101677.20
2023-01-09T18:15:24.745Z,101669.14
2023-01-09T18:17:59.613Z,101673.28
2023-01-09T18:20:33.527Z,101672.58
2023-01-09T18:23:09.347Z,101666.26
2023-01-09T18:25:44.413Z,101662.22
2023-01-09T18:28:18.882Z,101660.39
2023-01-09T18:30:53.425Z,101662.33
2023-01-09T18:33:30.141Z,101671.83
2023-01-09T18:36:12.039Z,101671.83
2023-01-09T18:38:49.271Z,101661.73
2023-01-09T18:41:24.420Z,101668.29
2023-01-09T18:44:02.843Z,101657.63
2023-01-09T18:46:41.002Z,101666.71
2023-01-09T18:49:14.831Z,101661.66
2023-01-09T18:51:48.897Z,101656.61
2023-01-09T18:54:22.850Z,101656.36
2023-01-09T18:56:57.246Z,101656.00
2023-01-09T18:59:33.228Z,101658.28
2023-01-09T19:02:07.352Z,101652.98
2023-01-09T19:04:41.941Z,101661.59
2023-01-09T19:07:16.709Z,101661.59
2023-01-09T19:09:50.849Z,101665.13
2023-01-09T19:12:27.771Z,101668.31
2023-01-09T19:15:02.343Z,101665.65
2023-01-09T19:17:37.049Z,101670.28
2023-01-09T19:20:11.599Z,101674.39
2023-01-09T19:22:45.781Z,101678.11
2023-01-09T19:25:19.704Z,101669.02
2023-01-09T19:27:55.442Z,101669.94
2023-01-09T19:30:30.644Z,101659.93
2023-01-09T19:33:05.401Z,101648.62
2023-01-09T19:35:39.764Z,101655.55
2023-01-09T19:38:13.956Z,101654.95
2023-01-09T19:40:47.892Z,101655.05
2023-01-09T19:43:27.631Z,101659.29
2023-01-09T19:46:01.485Z,101665.17
2023-01-09T19:48:35.649Z,101647.95
2023-01-09T19:51:11.468Z,101653.56
2023-01-09T19:53:45.692Z,101664.02
2023-01-09T19:56:23.611Z,101652.05
2023-01-09T19:59:04.222Z,101668.47
2023-01-09T20:01:42.040Z,101663.17
2023-01-09T20:04:17.607Z,101670.84
2023-01-09T20:06:53.584Z,101655.09
2023-01-09T20:09:29.308Z,101663.38
2023-01-09T20:12:05.286Z,101664.28
2023-01-09T20:14:40.014Z,101657.20
2023-01-09T20:17:14.691Z,101659.06
2023-01-09T20:19:48.439Z,101648.12
2023-01-09T20:22:21.424Z,101653.27
2023-01-09T20:24:55.067Z,101657.48
2023-01-09T20:27:28.838Z,101661.27
2023-01-09T20:30:01.805Z,101653.09
2023-01-09T20:32:37.352Z,101665.65
2023-01-09T20:35:11.680Z,101663.13
2023-01-09T20:37:45.355Z,101661.92
2023-01-09T20:40:18.594Z,101652.53
2023-01-09T20:42:52.080Z,101645.52
2023-01-09T20:45:27.550Z,101644.00
2023-01-09T20:48:01.699Z,101632.49
2023-01-09T20:50:36.215Z,101636.38
2023-01-09T20:53:10.057Z,101642.09
2023-01-09T20:55:43.879Z,101646.83
2023-01-09T20:58:18.071Z,101640.34
2023-01-09T21:00:52.502Z,101637.00
2023-01-09T21:03:26.574Z,101638.58
2023-01-09T21:06:00.721Z,101626.55
2023-01-09T21:08:35.343Z,101624.77
2023-01-09T21:11:09.498Z,101627.71
2023-01-09T21:13:44.468Z,101629.57
2023-01-09T21:16:22.127Z,101629.57
2023-01-09T21:18:56.228Z,101623.92
2023-01-09T21:21:30.225Z,101614.00
2023-01-09T21:24:04.751Z,101618.36
2023-01-09T21:26:38.920Z,101614.32
2023-01-09T21:29:15.752Z,101619.72
2023-01-09T21:31:50.407Z,101620.38
2023-01-09T21:34:24.659Z,101615.34
2023-01-09T21:36:58.724Z,101623.26
2023-01-09T21:39:33.034Z,101613.51
2023-01-09T21:42:24.959Z,101614.32
2023-01-09T21:45:15.895Z,101613.66
2023-01-09T21:47:49.791Z,101607.69
2023-01-09T21:50:22.719Z,101604.32
2023-01-09T21:52:56.625Z,101607.20
2023-01-09T21:55:32.378Z,101609.79
2023-01-09T21:58:06.421Z,101609.55
2023-01-09T22:00:41.311Z,101607.47
2023-01-09T22:03:19.071Z,101606.87
2023-01-09T22:05:52.621Z,101605.70
2023-01-09T22:08:26.439Z,101616.72
2023-01-09T22:11:01.548Z,101619.91
2023-01-09T22:13:35.480Z,101623.13
2023-01-09T22:16:11.416Z,101614.39
2023-01-09T22:18:45.244Z,101615.97
2023-01-09T22:21:19.417Z,101614.14
2023-01-09T22:23:52.454Z,101619.20
2023-01-09T22:26:26.238Z,101622.63
2023-01-09T22:29:00.165Z,101624.81
2023-01-09T22:31:35.250Z,101635.86
2023-01-09T22:34:10.923Z,101631.97
2023-01-09T22:36:46.182Z,101627.83
2023-01-09T22:39:21.139Z,101627.83
2023-01-09T22:41:55.685Z,101634.73
2023-01-09T22:44:29.377Z,101631.52
2023-01-09T22:47:04.787Z,101634.64
2023-01-09T22:49:52.204Z,101635.23
2023-01-09T22:52:14.899Z,101631.77
2023-01-09T22:54:49.729Z,101635.91
2023-01-09T22:57:24.527Z,101634.05
2023-01-09T22:59:57.409Z,101634.05
2023-01-09T23:02:31.150Z,101636.25
2023-01-09T23:05:05.176Z,101628.99
2023-01-09T23:07:39.850Z,101639.44
2023-01-09T23:10:16.067Z,101645.75
2023-01-09T23:12:50.553Z,101646.00
2023-01-09T23:15:24.773Z,101649.69
2023-01-09T23:17:57.681Z,101644.98
2023-01-09T23:20:31.257Z,101649.38
2023-01-09T23:23:06.197Z,101648.17
2023-01-09T23:25:40.010Z,101646.00
2023-01-09T23:28:13.692Z,101640.36
2023-01-09T23:30:50.603Z,101650.70
2023-01-09T23:33:24.389Z,101639.44
2023-01-09T23:35:58.907Z,101645.34
2023-01-09T23:38:32.621Z,101647.61
2023-01-09T23:41:08.118Z,101646.66
2023-01-09T23:43:44.562Z,101654.94
2023-01-09T23:46:18.316Z,101652.48
2023-01-09T23:48:52.073Z,101654.79
2023-01-09T23:51:26.284Z,101652.27
2023-01-09T23:54:00.306Z,101663.94
2023-01-09T23:56:34.850Z,101662.11
2023-01-09T23:59:12.985Z,101666.21
